sensor_id;sensor_type;location;lat;lon;timestamp;P1;durP1;ratioP1;P2;durP2;ratioP2
11671;SDS011;5892;43.412;24.612;2022-07-24T00:02:08;9.07;;;5.03;;
11671;SDS011;5892;43.412;24.612;2022-07-24T00:04:35;11.47;;;4.93;;
11671;SDS011;5892;43.412;24.612;2022-07-24T00:07:02;10.83;;;5.30;;
11671;SDS011;5892;43.412;24.612;2022-07-24T00:09:29;8.17;;;4.80;;
11671;SDS011;5892;43.412;24.612;2022-07-24T00:11:56;11.40;;;4.70;;
11671;SDS011;5892;43.412;24.612;2022-07-24T00:14:23;9.43;;;4.93;;
11671;SDS011;5892;43.412;24.612;2022-07-24T00:16:50;10.83;;;4.87;;
11671;SDS011;5892;43.412;24.612;2022-07-24T00:19:18;8.33;;;4.90;;
11671;SDS011;5892;43.412;24.612;2022-07-24T00:21:45;7.47;;;4.93;;
11671;SDS011;5892;43.412;24.612;2022-07-24T00:24:12;13.13;;;5.27;;
11671;SDS011;5892;43.412;24.612;2022-07-24T00:26:39;10.30;;;4.83;;
11671;SDS011;5892;43.412;24.612;2022-07-24T00:29:06;10.37;;;4.80;;
11671;SDS011;5892;43.412;24.612;2022-07-24T00:31:33;12.03;;;5.10;;
11671;SDS011;5892;43.412;24.612;2022-07-24T00:34:00;11.40;;;5.03;;
11671;SDS011;5892;43.412;24.612;2022-07-24T00:36:28;8.47;;;5.07;;
11671;SDS011;5892;43.412;24.612;2022-07-24T00:38:55;7.23;;;4.80;;
11671;SDS011;5892;43.412;24.612;2022-07-24T00:41:22;11.67;;;4.87;;
11671;SDS011;5892;43.412;24.612;2022-07-24T00:44:03;11.70;;;5.13;;
11671;SDS011;5892;43.412;24.612;2022-07-24T00:46:32;11.30;;;4.97;;
11671;SDS011;5892;43.412;24.612;2022-07-24T00:48:59;7.80;;;4.70;;
11671;SDS011;5892;43.412;24.612;2022-07-24T00:51:26;11.37;;;5.13;;
11671;SDS011;5892;43.412;24.612;2022-07-24T00:53:55;7.00;;;4.60;;
11671;SDS011;5892;43.412;24.612;2022-07-24T00:56:22;10.13;;;4.73;;
11671;SDS011;5892;43.412;24.612;2022-07-24T00:58:49;9.70;;;4.87;;
11671;SDS011;5892;43.412;24.612;2022-07-24T01:01:17;8.63;;;4.90;;
11671;SDS011;5892;43.412;24.612;2022-07-24T01:03:44;9.63;;;4.80;;
11671;SDS011;5892;43.412;24.612;2022-07-24T01:06:11;8.33;;;4.90;;
11671;SDS011;5892;43.412;24.612;2022-07-24T01:08:39;9.33;;;5.10;;
11671;SDS011;5892;43.412;24.612;2022-07-24T01:11:09;14.07;;;5.07;;
11671;SDS011;5892;43.412;24.612;2022-07-24T01:13:37;9.13;;;4.90;;
11671;SDS011;5892;43.412;24.612;2022-07-24T01:16:05;8.20;;;5.10;;
11671;SDS011;5892;43.412;24.612;2022-07-24T01:18:32;11.07;;;5.10;;
11671;SDS011;5892;43.412;24.612;2022-07-24T01:21:01;7.23;;;5.17;;
11671;SDS011;5892;43.412;24.612;2022-07-24T01:23:28;8.83;;;5.03;;
11671;SDS011;5892;43.412;24.612;2022-07-24T01:25:55;9.13;;;5.30;;
11671;SDS011;5892;43.412;24.612;2022-07-24T01:28:22;29.77;;;5.67;;
11671;SDS011;5892;43.412;24.612;2022-07-24T01:30:49;12.50;;;5.30;;
11671;SDS011;5892;43.412;24.612;2022-07-24T01:33:16;11.30;;;5.00;;
11671;SDS011;5892;43.412;24.612;2022-07-24T01:35:43;15.57;;;5.30;;
11671;SDS011;5892;43.412;24.612;2022-07-24T01:38:11;10.07;;;5.10;;
11671;SDS011;5892;43.412;24.612;2022-07-24T01:40:40;10.13;;;5.07;;
11671;SDS011;5892;43.412;24.612;2022-07-24T01:43:07;9.23;;;4.97;;
11671;SDS011;5892;43.412;24.612;2022-07-24T01:45:34;12.30;;;5.03;;
11671;SDS011;5892;43.412;24.612;2022-07-24T01:48:02;9.47;;;4.87;;
11671;SDS011;5892;43.412;24.612;2022-07-24T01:50:29;8.77;;;4.70;;
11671;SDS011;5892;43.412;24.612;2022-07-24T01:52:57;8.17;;;4.80;;
11671;SDS011;5892;43.412;24.612;2022-07-24T01:55:28;8.80;;;4.50;;
11671;SDS011;5892;43.412;24.612;2022-07-24T01:57:55;8.07;;;5.00;;
11671;SDS011;5892;43.412;24.612;2022-07-24T02:00:22;9.13;;;5.10;;
11671;SDS011;5892;43.412;24.612;2022-07-24T02:02:49;10.83;;;5.23;;
11671;SDS011;5892;43.412;24.612;2022-07-24T02:05:16;8.97;;;5.30;;
11671;SDS011;5892;43.412;24.612;2022-07-24T02:07:43;8.90;;;4.90;;
11671;SDS011;5892;43.412;24.612;2022-07-24T02:10:11;10.73;;;5.03;;
11671;SDS011;5892;43.412;24.612;2022-07-24T02:12:40;8.23;;;4.77;;
11671;SDS011;5892;43.412;24.612;2022-07-24T02:15:08;8.17;;;5.20;;
11671;SDS011;5892;43.412;24.612;2022-07-24T02:17:36;10.03;;;5.20;;
11671;SDS011;5892;43.412;24.612;2022-07-24T02:20:03;12.03;;;4.97;;
11671;SDS011;5892;43.412;24.612;2022-07-24T02:22:31;11.07;;;5.10;;
11671;SDS011;5892;43.412;24.612;2022-07-24T02:24:59;10.10;;;5.00;;
11671;SDS011;5892;43.412;24.612;2022-07-24T02:27:26;11.50;;;5.13;;
11671;SDS011;5892;43.412;24.612;2022-07-24T02:29:54;10.80;;;5.20;;
11671;SDS011;5892;43.412;24.612;2022-07-24T02:32:21;10.70;;;5.23;;
11671;SDS011;5892;43.412;24.612;2022-07-24T02:34:48;8.90;;;5.33;;
11671;SDS011;5892;43.412;24.612;2022-07-24T02:37:16;8.67;;;4.90;;
11671;SDS011;5892;43.412;24.612;2022-07-24T02:39:43;10.80;;;5.23;;
11671;SDS011;5892;43.412;24.612;2022-07-24T02:42:09;9.77;;;5.33;;
11671;SDS011;5892;43.412;24.612;2022-07-24T02:44:36;12.93;;;5.60;;
11671;SDS011;5892;43.412;24.612;2022-07-24T02:47:05;14.90;;;5.03;;
11671;SDS011;5892;43.412;24.612;2022-07-24T02:49:32;11.27;;;5.27;;
11671;SDS011;5892;43.412;24.612;2022-07-24T02:51:59;11.63;;;5.50;;
11671;SDS011;5892;43.412;24.612;2022-07-24T02:54:25;6.80;;;5.13;;
11671;SDS011;5892;43.412;24.612;2022-07-24T02:56:52;12.47;;;5.60;;
11671;SDS011;5892;43.412;24.612;2022-07-24T02:59:19;9.50;;;5.33;;
11671;SDS011;5892;43.412;24.612;2022-07-24T03:01:46;11.20;;;5.90;;
11671;SDS011;5892;43.412;24.612;2022-07-24T03:04:15;10.20;;;5.60;;
11671;SDS011;5892;43.412;24.612;2022-07-24T03:06:41;14.60;;;6.17;;
11671;SDS011;5892;43.412;24.612;2022-07-24T03:09:08;15.97;;;5.93;;
11671;SDS011;5892;43.412;24.612;2022-07-24T03:11:35;11.30;;;6.43;;
11671;SDS011;5892;43.412;24.612;2022-07-24T03:14:02;15.30;;;7.00;;
11671;SDS011;5892;43.412;24.612;2022-07-24T03:16:29;19.90;;;8.77;;
11671;SDS011;5892;43.412;24.612;2022-07-24T03:18:56;25.53;;;9.47;;
11671;SDS011;5892;43.412;24.612;2022-07-24T03:21:25;26.37;;;8.10;;
11671;SDS011;5892;43.412;24.612;2022-07-24T03:23:51;33.27;;;20.10;;
11671;SDS011;5892;43.412;24.612;2022-07-24T03:26:18;28.40;;;17.17;;
11671;SDS011;5892;43.412;24.612;2022-07-24T03:28:45;21.90;;;15.30;;
11671;SDS011;5892;43.412;24.612;2022-07-24T03:31:12;16.03;;;10.13;;
11671;SDS011;5892;43.412;24.612;2022-07-24T03:33:39;16.20;;;10.27;;
11671;SDS011;5892;43.412;24.612;2022-07-24T03:36:06;16.20;;;8.70;;
11671;SDS011;5892;43.412;24.612;2022-07-24T03:38:35;15.53;;;9.43;;
11671;SDS011;5892;43.412;24.612;2022-07-24T03:41:02;17.83;;;8.67;;
11671;SDS011;5892;43.412;24.612;2022-07-24T03:43:29;14.43;;;9.30;;
11671;SDS011;5892;43.412;24.612;2022-07-24T03:45:56;11.73;;;8.97;;
11671;SDS011;5892;43.412;24.612;2022-07-24T03:48:23;16.67;;;9.30;;
11671;SDS011;5892;43.412;24.612;2022-07-24T03:50:50;15.50;;;8.73;;
11671;SDS011;5892;43.412;24.612;2022-07-24T03:53:17;18.23;;;9.80;;
11671;SDS011;5892;43.412;24.612;2022-07-24T03:55:45;18.37;;;8.60;;
11671;SDS011;5892;43.412;24.612;2022-07-24T03:58:12;15.27;;;9.00;;
11671;SDS011;5892;43.412;24.612;2022-07-24T04:00:39;13.00;;;8.07;;
11671;SDS011;5892;43.412;24.612;2022-07-24T04:03:06;22.20;;;9.43;;
11671;SDS011;5892;43.412;24.612;2022-07-24T04:05:33;19.13;;;9.90;;
11671;SDS011;5892;43.412;24.612;2022-07-24T04:08:00;18.27;;;9.10;;
11671;SDS011;5892;43.412;24.612;2022-07-24T04:10:27;13.30;;;9.10;;
11671;SDS011;5892;43.412;24.612;2022-07-24T04:12:55;13.00;;;9.10;;
11671;SDS011;5892;43.412;24.612;2022-07-24T04:15:22;15.87;;;9.77;;
11671;SDS011;5892;43.412;24.612;2022-07-24T04:17:49;16.63;;;7.80;;
11671;SDS011;5892;43.412;24.612;2022-07-24T04:20:16;13.53;;;7.37;;
11671;SDS011;5892;43.412;24.612;2022-07-24T04:22:43;13.13;;;7.33;;
11671;SDS011;5892;43.412;24.612;2022-07-24T04:25:10;13.13;;;7.30;;
11671;SDS011;5892;43.412;24.612;2022-07-24T04:27:37;12.73;;;7.13;;
11671;SDS011;5892;43.412;24.612;2022-07-24T04:30:06;14.13;;;7.40;;
11671;SDS011;5892;43.412;24.612;2022-07-24T04:32:33;11.17;;;7.13;;
11671;SDS011;5892;43.412;24.612;2022-07-24T04:35:00;15.03;;;6.90;;
11671;SDS011;5892;43.412;24.612;2022-07-24T04:37:27;11.80;;;7.03;;
11671;SDS011;5892;43.412;24.612;2022-07-24T04:39:54;13.77;;;6.97;;
11671;SDS011;5892;43.412;24.612;2022-07-24T04:42:21;9.67;;;6.77;;
11671;SDS011;5892;43.412;24.612;2022-07-24T04:44:48;11.20;;;7.10;;
11671;SDS011;5892;43.412;24.612;2022-07-24T04:47:16;12.80;;;7.30;;
11671;SDS011;5892;43.412;24.612;2022-07-24T04:49:43;15.37;;;7.60;;
11671;SDS011;5892;43.412;24.612;2022-07-24T04:52:10;12.13;;;7.80;;
11671;SDS011;5892;43.412;24.612;2022-07-24T04:54:37;12.73;;;7.43;;
11671;SDS011;5892;43.412;24.612;2022-07-24T04:57:04;14.57;;;7.80;;
11671;SDS011;5892;43.412;24.612;2022-07-24T04:59:31;19.83;;;7.60;;
11671;SDS011;5892;43.412;24.612;2022-07-24T05:01:58;15.97;;;7.63;;
11671;SDS011;5892;43.412;24.612;2022-07-24T05:04:26;12.43;;;7.60;;
11671;SDS011;5892;43.412;24.612;2022-07-24T05:06:53;11.50;;;7.90;;
11671;SDS011;5892;43.412;24.612;2022-07-24T05:09:20;11.30;;;7.10;;
11671;SDS011;5892;43.412;24.612;2022-07-24T05:11:47;17.87;;;7.00;;
11671;SDS011;5892;43.412;24.612;2022-07-24T05:14:14;12.30;;;7.47;;
11671;SDS011;5892;43.412;24.612;2022-07-24T05:16:40;16.10;;;7.60;;
11671;SDS011;5892;43.412;24.612;2022-07-24T05:19:07;12.80;;;7.83;;
11671;SDS011;5892;43.412;24.612;2022-07-24T05:21:36;14.20;;;7.97;;
11671;SDS011;5892;43.412;24.612;2022-07-24T05:24:03;14.17;;;8.67;;
11671;SDS011;5892;43.412;24.612;2022-07-24T05:26:30;19.77;;;8.47;;
11671;SDS011;5892;43.412;24.612;2022-07-24T05:28:57;19.13;;;8.93;;
11671;SDS011;5892;43.412;24.612;2022-07-24T05:31:24;19.17;;;9.70;;
11671;SDS011;5892;43.412;24.612;2022-07-24T05:33:51;18.20;;;8.97;;
11671;SDS011;5892;43.412;24.612;2022-07-24T05:36:19;18.20;;;9.00;;
11671;SDS011;5892;43.412;24.612;2022-07-24T05:38:48;17.03;;;9.03;;
11671;SDS011;5892;43.412;24.612;2022-07-24T05:41:14;20.83;;;9.33;;
11671;SDS011;5892;43.412;24.612;2022-07-24T05:43:41;30.23;;;10.20;;
11671;SDS011;5892;43.412;24.612;2022-07-24T05:46:08;22.80;;;9.37;;
11671;SDS011;5892;43.412;24.612;2022-07-24T05:48:35;28.87;;;10.07;;
11671;SDS011;5892;43.412;24.612;2022-07-24T05:51:02;14.63;;;8.03;;
11671;SDS011;5892;43.412;24.612;2022-07-24T05:53:29;18.57;;;8.00;;
11671;SDS011;5892;43.412;24.612;2022-07-24T05:55:57;18.67;;;8.40;;
11671;SDS011;5892;43.412;24.612;2022-07-24T05:58:24;16.97;;;8.03;;
11671;SDS011;5892;43.412;24.612;2022-07-24T06:00:51;12.73;;;7.10;;
11671;SDS011;5892;43.412;24.612;2022-07-24T06:03:18;15.93;;;7.57;;
11671;SDS011;5892;43.412;24.612;2022-07-24T06:05:45;14.20;;;7.50;;
11671;SDS011;5892;43.412;24.612;2022-07-24T06:08:12;13.63;;;7.07;;
11671;SDS011;5892;43.412;24.612;2022-07-24T06:10:39;16.13;;;8.00;;
11671;SDS011;5892;43.412;24.612;2022-07-24T06:13:07;14.77;;;7.90;;
11671;SDS011;5892;43.412;24.612;2022-07-24T06:15:34;16.40;;;8.43;;
11671;SDS011;5892;43.412;24.612;2022-07-24T06:18:01;13.83;;;8.37;;
11671;SDS011;5892;43.412;24.612;2022-07-24T06:20:28;16.63;;;7.50;;
11671;SDS011;5892;43.412;24.612;2022-07-24T06:22:55;14.83;;;7.43;;
11671;SDS011;5892;43.412;24.612;2022-07-24T06:25:22;15.18;;;7.03;;
11671;SDS011;5892;43.412;24.612;2022-07-24T06:27:49;14.83;;;7.10;;
11671;SDS011;5892;43.412;24.612;2022-07-24T06:30:20;13.68;;;7.78;;
11671;SDS011;5892;43.412;24.612;2022-07-24T06:32:48;15.35;;;9.05;;
11671;SDS011;5892;43.412;24.612;2022-07-24T06:35:16;18.85;;;9.55;;
11671;SDS011;5892;43.412;24.612;2022-07-24T06:37:42;15.93;;;8.93;;
11671;SDS011;5892;43.412;24.612;2022-07-24T06:40:10;18.65;;;8.52;;
11671;SDS011;5892;43.412;24.612;2022-07-24T06:42:38;14.88;;;7.75;;
11671;SDS011;5892;43.412;24.612;2022-07-24T06:45:05;17.63;;;8.02;;
11671;SDS011;5892;43.412;24.612;2022-07-24T06:47:34;16.48;;;7.50;;
11671;SDS011;5892;43.412;24.612;2022-07-24T06:50:01;13.98;;;6.68;;
11671;SDS011;5892;43.412;24.612;2022-07-24T06:52:28;12.63;;;6.43;;
11671;SDS011;5892;43.412;24.612;2022-07-24T06:54:55;11.38;;;6.88;;
11671;SDS011;5892;43.412;24.612;2022-07-24T06:57:22;12.40;;;6.70;;
11671;SDS011;5892;43.412;24.612;2022-07-24T06:59:50;13.02;;;5.70;;
11671;SDS011;5892;43.412;24.612;2022-07-24T07:02:17;10.88;;;5.38;;
11671;SDS011;5892;43.412;24.612;2022-07-24T07:04:46;10.23;;;5.35;;
11671;SDS011;5892;43.412;24.612;2022-07-24T07:07:13;14.43;;;5.28;;
11671;SDS011;5892;43.412;24.612;2022-07-24T07:09:40;15.00;;;5.07;;
11671;SDS011;5892;43.412;24.612;2022-07-24T07:12:08;12.05;;;5.22;;
11671;SDS011;5892;43.412;24.612;2022-07-24T07:14:35;9.70;;;5.25;;
11671;SDS011;5892;43.412;24.612;2022-07-24T07:17:02;9.60;;;5.28;;
11671;SDS011;5892;43.412;24.612;2022-07-24T07:19:30;8.75;;;5.30;;
11671;SDS011;5892;43.412;24.612;2022-07-24T07:21:58;8.93;;;4.78;;
11671;SDS011;5892;43.412;24.612;2022-07-24T07:24:26;12.13;;;5.18;;
11671;SDS011;5892;43.412;24.612;2022-07-24T07:26:52;10.27;;;5.22;;
11671;SDS011;5892;43.412;24.612;2022-07-24T07:29:19;11.25;;;5.10;;
11671;SDS011;5892;43.412;24.612;2022-07-24T07:31:46;10.95;;;5.03;;
11671;SDS011;5892;43.412;24.612;2022-07-24T07:34:13;10.48;;;5.00;;
11671;SDS011;5892;43.412;24.612;2022-07-24T07:36:40;9.50;;;5.05;;
11671;SDS011;5892;43.412;24.612;2022-07-24T07:39:08;9.70;;;4.90;;
11671;SDS011;5892;43.412;24.612;2022-07-24T07:41:36;13.90;;;5.65;;
11671;SDS011;5892;43.412;24.612;2022-07-24T07:44:03;9.93;;;4.88;;
11671;SDS011;5892;43.412;24.612;2022-07-24T07:46:30;10.48;;;5.38;;
11671;SDS011;5892;43.412;24.612;2022-07-24T07:48:57;11.07;;;5.22;;
11671;SDS011;5892;43.412;24.612;2022-07-24T07:51:24;10.50;;;5.68;;
11671;SDS011;5892;43.412;24.612;2022-07-24T07:53:51;13.10;;;6.22;;
11671;SDS011;5892;43.412;24.612;2022-07-24T07:56:19;13.52;;;5.43;;
11671;SDS011;5892;43.412;24.612;2022-07-24T07:58:46;8.40;;;5.60;;
11671;SDS011;5892;43.412;24.612;2022-07-24T08:01:13;15.73;;;5.43;;
11671;SDS011;5892;43.412;24.612;2022-07-24T08:03:40;14.77;;;5.35;;
11671;SDS011;5892;43.412;24.612;2022-07-24T08:06:07;12.43;;;5.15;;
11671;SDS011;5892;43.412;24.612;2022-07-24T08:08:34;12.23;;;5.60;;
11671;SDS011;5892;43.412;24.612;2022-07-24T08:11:01;12.32;;;6.05;;
11671;SDS011;5892;43.412;24.612;2022-07-24T08:13:31;13.68;;;5.93;;
11671;SDS011;5892;43.412;24.612;2022-07-24T08:16:06;12.07;;;5.60;;
11671;SDS011;5892;43.412;24.612;2022-07-24T08:18:33;10.43;;;5.40;;
11671;SDS011;5892;43.412;24.612;2022-07-24T08:21:00;13.07;;;5.95;;
11671;SDS011;5892;43.412;24.612;2022-07-24T08:23:27;12.88;;;6.00;;
11671;SDS011;5892;43.412;24.612;2022-07-24T08:25:54;9.43;;;5.50;;
11671;SDS011;5892;43.412;24.612;2022-07-24T08:28:21;11.38;;;5.32;;
11671;SDS011;5892;43.412;24.612;2022-07-24T08:30:49;10.75;;;5.60;;
11671;SDS011;5892;43.412;24.612;2022-07-24T08:33:16;11.45;;;5.05;;
11671;SDS011;5892;43.412;24.612;2022-07-24T08:35:44;22.67;;;5.10;;
11671;SDS011;5892;43.412;24.612;2022-07-24T08:38:11;9.88;;;5.05;;
11671;SDS011;5892;43.412;24.612;2022-07-24T08:40:38;9.02;;;5.38;;
11671;SDS011;5892;43.412;24.612;2022-07-24T08:43:06;9.75;;;5.05;;
11671;SDS011;5892;43.412;24.612;2022-07-24T08:45:34;9.20;;;4.68;;
11671;SDS011;5892;43.412;24.612;2022-07-24T08:48:05;11.10;;;5.03;;
11671;SDS011;5892;43.412;24.612;2022-07-24T08:50:33;8.88;;;4.50;;
11671;SDS011;5892;43.412;24.612;2022-07-24T08:53:01;17.40;;;5.78;;
11671;SDS011;5892;43.412;24.612;2022-07-24T08:55:29;14.77;;;4.70;;
11671;SDS011;5892;43.412;24.612;2022-07-24T08:57:56;14.30;;;4.57;;
11671;SDS011;5892;43.412;24.612;2022-07-24T09:00:23;14.38;;;4.78;;
11671;SDS011;5892;43.412;24.612;2022-07-24T09:02:50;10.15;;;4.82;;
11671;SDS011;5892;43.412;24.612;2022-07-24T09:05:19;12.13;;;4.63;;
11671;SDS011;5892;43.412;24.612;2022-07-24T09:07:46;12.63;;;4.65;;
11671;SDS011;5892;43.412;24.612;2022-07-24T09:10:13;7.20;;;4.40;;
11671;SDS011;5892;43.412;24.612;2022-07-24T09:12:43;10.82;;;4.47;;
11671;SDS011;5892;43.412;24.612;2022-07-24T09:15:12;8.18;;;4.68;;
11671;SDS011;5892;43.412;24.612;2022-07-24T09:17:47;11.32;;;4.53;;
11671;SDS011;5892;43.412;24.612;2022-07-24T09:20:14;16.75;;;4.97;;
11671;SDS011;5892;43.412;24.612;2022-07-24T09:22:43;13.32;;;4.43;;
11671;SDS011;5892;43.412;24.612;2022-07-24T09:25:11;8.50;;;4.30;;
11671;SDS011;5892;43.412;24.612;2022-07-24T09:27:40;11.45;;;4.50;;
11671;SDS011;5892;43.412;24.612;2022-07-24T09:30:20;12.35;;;4.68;;
11671;SDS011;5892;43.412;24.612;2022-07-24T09:32:51;14.07;;;4.50;;
11671;SDS011;5892;43.412;24.612;2022-07-24T09:35:21;12.90;;;4.60;;
11671;SDS011;5892;43.412;24.612;2022-07-24T09:37:54;15.20;;;4.68;;
11671;SDS011;5892;43.412;24.612;2022-07-24T09:40:24;9.23;;;4.25;;
11671;SDS011;5892;43.412;24.612;2022-07-24T09:43:11;13.10;;;4.88;;
11671;SDS011;5892;43.412;24.612;2022-07-24T09:45:57;7.70;;;4.50;;
11671;SDS011;5892;43.412;24.612;2022-07-24T09:48:27;9.73;;;4.43;;
11671;SDS011;5892;43.412;24.612;2022-07-24T09:50:55;10.57;;;4.35;;
11671;SDS011;5892;43.412;24.612;2022-07-24T09:53:25;12.30;;;4.25;;
11671;SDS011;5892;43.412;24.612;2022-07-24T09:58:39;11.45;;;4.60;;
11671;SDS011;5892;43.412;24.612;2022-07-24T10:01:14;14.10;;;4.93;;
11671;SDS011;5892;43.412;24.612;2022-07-24T10:03:43;13.30;;;5.10;;
11671;SDS011;5892;43.412;24.612;2022-07-24T10:06:11;16.20;;;4.82;;
11671;SDS011;5892;43.412;24.612;2022-07-24T10:08:42;10.95;;;4.88;;
11671;SDS011;5892;43.412;24.612;2022-07-24T10:11:09;9.23;;;4.72;;
11671;SDS011;5892;43.412;24.612;2022-07-24T10:13:37;10.25;;;4.65;;
11671;SDS011;5892;43.412;24.612;2022-07-24T10:16:27;20.10;;;5.38;;
11671;SDS011;5892;43.412;24.612;2022-07-24T10:18:57;14.05;;;4.70;;
11671;SDS011;5892;43.412;24.612;2022-07-24T10:21:25;10.95;;;4.50;;
11671;SDS011;5892;43.412;24.612;2022-07-24T10:24:06;12.32;;;4.95;;
11671;SDS011;5892;43.412;24.612;2022-07-24T10:26:40;10.85;;;4.70;;
11671;SDS011;5892;43.412;24.612;2022-07-24T10:29:09;14.43;;;4.95;;
11671;SDS011;5892;43.412;24.612;2022-07-24T10:31:38;15.73;;;4.68;;
11671;SDS011;5892;43.412;24.612;2022-07-24T10:34:09;13.73;;;4.57;;
11671;SDS011;5892;43.412;24.612;2022-07-24T10:36:44;12.13;;;4.38;;
11671;SDS011;5892;43.412;24.612;2022-07-24T10:39:20;8.85;;;4.50;;
11671;SDS011;5892;43.412;24.612;2022-07-24T10:42:01;5.47;;;4.18;;
11671;SDS011;5892;43.412;24.612;2022-07-24T10:44:29;15.18;;;4.68;;
11671;SDS011;5892;43.412;24.612;2022-07-24T10:47:01;16.52;;;4.50;;
11671;SDS011;5892;43.412;24.612;2022-07-24T10:49:39;17.90;;;4.13;;
11671;SDS011;5892;43.412;24.612;2022-07-24T10:52:08;9.07;;;3.92;;
11671;SDS011;5892;43.412;24.612;2022-07-24T10:54:37;12.30;;;4.47;;
11671;SDS011;5892;43.412;24.612;2022-07-24T10:57:05;10.48;;;4.50;;
11671;SDS011;5892;43.412;24.612;2022-07-24T10:59:32;8.23;;;4.40;;
11671;SDS011;5892;43.412;24.612;2022-07-24T11:10:56;8.82;;;4.00;;
11671;SDS011;5892;43.412;24.612;2022-07-24T11:16:20;9.48;;;4.45;;
11671;SDS011;5892;43.412;24.612;2022-07-24T11:22:09;11.13;;;4.30;;
11671;SDS011;5892;43.412;24.612;2022-07-24T11:24:41;8.20;;;4.60;;
11671;SDS011;5892;43.412;24.612;2022-07-24T11:27:30;6.60;;;4.22;;
11671;SDS011;5892;43.412;24.612;2022-07-24T11:30:11;6.68;;;4.07;;
11671;SDS011;5892;43.412;24.612;2022-07-24T11:32:39;9.23;;;4.07;;
11671;SDS011;5892;43.412;24.612;2022-07-24T11:35:07;12.88;;;5.45;;
11671;SDS011;5892;43.412;24.612;2022-07-24T11:37:35;15.05;;;10.13;;
11671;SDS011;5892;43.412;24.612;2022-07-24T11:40:04;7.93;;;3.92;;
11671;SDS011;5892;43.412;24.612;2022-07-24T11:42:34;7.47;;;3.83;;
11671;SDS011;5892;43.412;24.612;2022-07-24T11:45:02;7.03;;;3.78;;
11671;SDS011;5892;43.412;24.612;2022-07-24T11:47:30;7.05;;;4.10;;
11671;SDS011;5892;43.412;24.612;2022-07-24T11:49:57;9.93;;;4.13;;
11671;SDS011;5892;43.412;24.612;2022-07-24T11:52:27;11.82;;;3.92;;
11671;SDS011;5892;43.412;24.612;2022-07-24T11:54:59;7.10;;;4.07;;
11671;SDS011;5892;43.412;24.612;2022-07-24T12:58:15;7.50;;;4.63;;
11671;SDS011;5892;43.412;24.612;2022-07-24T13:00:55;6.63;;;4.50;;
11671;SDS011;5892;43.412;24.612;2022-07-24T13:03:26;6.57;;;4.65;;
11671;SDS011;5892;43.412;24.612;2022-07-24T13:05:54;11.02;;;4.85;;
11671;SDS011;5892;43.412;24.612;2022-07-24T13:08:21;5.85;;;4.72;;
11671;SDS011;5892;43.412;24.612;2022-07-24T13:10:48;8.63;;;4.43;;
11671;SDS011;5892;43.412;24.612;2022-07-24T13:13:17;5.82;;;4.32;;
11671;SDS011;5892;43.412;24.612;2022-07-24T13:15:44;6.22;;;4.57;;
11671;SDS011;5892;43.412;24.612;2022-07-24T13:18:10;5.93;;;4.55;;
11671;SDS011;5892;43.412;24.612;2022-07-24T13:20:37;6.05;;;4.40;;
11671;SDS011;5892;43.412;24.612;2022-07-24T13:23:04;11.57;;;4.65;;
11671;SDS011;5892;43.412;24.612;2022-07-24T13:25:31;7.38;;;4.47;;
11671;SDS011;5892;43.412;24.612;2022-07-24T13:27:58;6.45;;;4.40;;
11671;SDS011;5892;43.412;24.612;2022-07-24T13:30:27;6.40;;;4.50;;
11671;SDS011;5892;43.412;24.612;2022-07-24T13:32:53;11.90;;;4.65;;
11671;SDS011;5892;43.412;24.612;2022-07-24T13:35:20;6.18;;;4.50;;
11671;SDS011;5892;43.412;24.612;2022-07-24T13:37:47;6.03;;;4.65;;
11671;SDS011;5892;43.412;24.612;2022-07-24T13:40:14;7.93;;;5.05;;
11671;SDS011;5892;43.412;24.612;2022-07-24T13:42:42;8.70;;;4.90;;
11671;SDS011;5892;43.412;24.612;2022-07-24T13:45:09;7.70;;;4.60;;
11671;SDS011;5892;43.412;24.612;2022-07-24T13:47:37;10.38;;;4.85;;
11671;SDS011;5892;43.412;24.612;2022-07-24T13:50:05;8.45;;;4.82;;
11671;SDS011;5892;43.412;24.612;2022-07-24T13:52:32;7.00;;;4.88;;
11671;SDS011;5892;43.412;24.612;2022-07-24T13:54:59;9.40;;;5.00;;
11671;SDS011;5892;43.412;24.612;2022-07-24T13:57:26;7.95;;;5.10;;
11671;SDS011;5892;43.412;24.612;2022-07-24T13:59:53;6.38;;;4.90;;
11671;SDS011;5892;43.412;24.612;2022-07-24T14:02:20;7.32;;;5.00;;
11671;SDS011;5892;43.412;24.612;2022-07-24T14:04:48;12.65;;;5.00;;
11671;SDS011;5892;43.412;24.612;2022-07-24T14:07:15;9.57;;;5.20;;
11671;SDS011;5892;43.412;24.612;2022-07-24T14:09:42;6.75;;;4.90;;
11671;SDS011;5892;43.412;24.612;2022-07-24T14:12:09;5.90;;;5.30;;
11671;SDS011;5892;43.412;24.612;2022-07-24T14:14:36;6.15;;;4.90;;
11671;SDS011;5892;43.412;24.612;2022-07-24T14:17:03;6.45;;;4.93;;
11671;SDS011;5892;43.412;24.612;2022-07-24T14:19:30;7.70;;;5.15;;
11671;SDS011;5892;43.412;24.612;2022-07-24T14:21:58;5.93;;;5.20;;
11671;SDS011;5892;43.412;24.612;2022-07-24T14:24:25;7.60;;;5.25;;
11671;SDS011;5892;43.412;24.612;2022-07-24T14:26:52;7.07;;;5.00;;
11671;SDS011;5892;43.412;24.612;2022-07-24T14:29:19;10.10;;;5.10;;
11671;SDS011;5892;43.412;24.612;2022-07-24T14:31:46;9.75;;;5.28;;
11671;SDS011;5892;43.412;24.612;2022-07-24T14:34:14;10.38;;;5.30;;
11671;SDS011;5892;43.412;24.612;2022-07-24T14:36:43;10.02;;;5.70;;
11671;SDS011;5892;43.412;24.612;2022-07-24T14:39:11;10.00;;;6.22;;
11671;SDS011;5892;43.412;24.612;2022-07-24T14:41:39;13.73;;;7.28;;
11671;SDS011;5892;43.412;24.612;2022-07-24T14:44:07;11.70;;;5.47;;
11671;SDS011;5892;43.412;24.612;2022-07-24T14:46:34;17.80;;;5.90;;
11671;SDS011;5892;43.412;24.612;2022-07-24T14:49:01;21.00;;;7.70;;
11671;SDS011;5892;43.412;24.612;2022-07-24T14:51:28;17.60;;;6.55;;
11671;SDS011;5892;43.412;24.612;2022-07-24T14:53:55;48.30;;;6.63;;
11671;SDS011;5892;43.412;24.612;2022-07-24T14:56:23;19.60;;;6.75;;
11671;SDS011;5892;43.412;24.612;2022-07-24T14:58:50;13.90;;;5.80;;
11671;SDS011;5892;43.412;24.612;2022-07-24T15:01:17;16.13;;;5.75;;
11671;SDS011;5892;43.412;24.612;2022-07-24T15:03:44;17.50;;;6.53;;
11671;SDS011;5892;43.412;24.612;2022-07-24T15:06:11;11.65;;;5.38;;
11671;SDS011;5892;43.412;24.612;2022-07-24T15:08:37;11.00;;;5.68;;
11671;SDS011;5892;43.412;24.612;2022-07-24T15:11:05;12.85;;;5.60;;
11671;SDS011;5892;43.412;24.612;2022-07-24T15:13:33;9.77;;;5.40;;
11671;SDS011;5892;43.412;24.612;2022-07-24T15:16:02;10.65;;;5.00;;
11671;SDS011;5892;43.412;24.612;2022-07-24T15:18:30;7.97;;;5.00;;
11671;SDS011;5892;43.412;24.612;2022-07-24T15:20:57;12.32;;;4.82;;
11671;SDS011;5892;43.412;24.612;2022-07-24T15:23:23;6.07;;;4.70;;
11671;SDS011;5892;43.412;24.612;2022-07-24T15:25:51;17.05;;;5.50;;
11671;SDS011;5892;43.412;24.612;2022-07-24T15:28:19;11.00;;;5.68;;
11671;SDS011;5892;43.412;24.612;2022-07-24T15:30:48;13.80;;;5.32;;
11671;SDS011;5892;43.412;24.612;2022-07-24T15:33:15;12.38;;;5.90;;
11671;SDS011;5892;43.412;24.612;2022-07-24T15:35:42;14.45;;;5.88;;
11671;SDS011;5892;43.412;24.612;2022-07-24T15:38:08;11.05;;;6.22;;
11671;SDS011;5892;43.412;24.612;2022-07-24T15:40:35;13.23;;;6.25;;
11671;SDS011;5892;43.412;24.612;2022-07-24T15:43:02;12.68;;;6.28;;
11671;SDS011;5892;43.412;24.612;2022-07-24T15:45:29;9.13;;;5.85;;
11671;SDS011;5892;43.412;24.612;2022-07-24T15:47:58;14.40;;;6.13;;
11671;SDS011;5892;43.412;24.612;2022-07-24T15:50:24;15.75;;;6.00;;
11671;SDS011;5892;43.412;24.612;2022-07-24T15:52:51;14.55;;;6.05;;
11671;SDS011;5892;43.412;24.612;2022-07-24T15:55:18;9.77;;;5.60;;
11671;SDS011;5892;43.412;24.612;2022-07-24T15:57:45;13.60;;;5.93;;
11671;SDS011;5892;43.412;24.612;2022-07-24T16:00:13;9.35;;;6.03;;
11671;SDS011;5892;43.412;24.612;2022-07-24T16:02:42;10.93;;;5.80;;